- বাংলা English

****

TAF

TAF VGHS  262300Z 2700/2806 18010KT 3500 HZ SCT012 SCT100
    BECMG 2703/2705 19012KT 4000 HZ SCT015  SCT100
    TEMPO 2714/2716 28025G35KT 2000 RA/TSRA BKN007 FEW025CB OVC090
    BEC MG 2721/2723 16008KT 3500 HZ SCT012 SCT100
    BECMG 2803/2805 19012KT 4000 HZ FEW015 SCT100=